createdAt,value
2022-12-16T00:01:50.396Z,95.40
2022-12-16T00:04:20.329Z,99.53
2022-12-16T00:06:48.691Z,100.60
2022-12-16T00:09:17.456Z,82.70
2022-12-16T00:11:45.923Z,86.27
2022-12-16T00:14:14.354Z,84.83
2022-12-16T00:16:42.821Z,82.23
2022-12-16T00:19:12.656Z,94.20
2022-12-16T00:21:41.045Z,81.57
2022-12-16T00:24:09.526Z,84.53
2022-12-16T00:26:37.963Z,84.73
2022-12-16T00:29:06.758Z,83.97
2022-12-16T00:31:35.268Z,92.77
2022-12-16T00:34:03.935Z,82.20
2022-12-16T00:36:33.764Z,90.77
2022-12-16T00:39:02.416Z,86.20
2022-12-16T00:41:30.839Z,86.97
2022-12-16T00:43:59.818Z,94.13
2022-12-16T00:46:28.221Z,88.70
2022-12-16T00:48:56.636Z,79.13
2022-12-16T00:51:25.030Z,85.53
2022-12-16T00:53:54.818Z,84.37
2022-12-16T00:56:23.279Z,85.70
2022-12-16T00:58:51.877Z,78.03
2022-12-16T01:01:20.543Z,86.90
2022-12-16T01:03:49.117Z,83.40
2022-12-16T01:06:19.083Z,97.20
2022-12-16T01:08:48.987Z,119.00
2022-12-16T01:11:20.064Z,105.37
2022-12-16T01:13:52.034Z,103.90
2022-12-16T01:16:21.225Z,97.13
2022-12-16T01:18:50.247Z,96.00
2022-12-16T01:21:18.675Z,83.90
2022-12-16T01:23:48.981Z,80.83
2022-12-16T01:26:19.767Z,83.27
2022-12-16T01:28:50.286Z,84.70
2022-12-16T01:31:20.717Z,79.63
2022-12-16T01:33:49.594Z,75.67
2022-12-16T01:36:18.535Z,82.70
2022-12-16T01:38:47.301Z,78.53
2022-12-16T01:41:17.512Z,78.53
2022-12-16T01:43:47.829Z,77.37
2022-12-16T01:46:22.199Z,70.90
2022-12-16T01:48:55.290Z,81.43
2022-12-16T01:51:28.303Z,82.37
2022-12-16T01:54:00.481Z,79.60
2022-12-16T01:56:32.456Z,78.37
2022-12-16T01:59:03.579Z,77.53
2022-12-16T02:01:32.184Z,73.93
2022-12-16T02:04:04.221Z,73.87
2022-12-16T02:06:33.355Z,76.90
2022-12-16T02:09:06.306Z,75.30
2022-12-16T02:11:58.669Z,80.77
2022-12-16T02:15:26.501Z,71.53
2022-12-16T02:18:02.774Z,66.90
2022-12-16T02:21:09.338Z,82.70
2022-12-16T02:24:07.325Z,70.97
2022-12-16T02:27:12.534Z,67.23
2022-12-16T02:30:05.617Z,68.87
2022-12-16T02:32:46.346Z,73.97
2022-12-16T02:35:26.266Z,70.43
2022-12-16T02:38:04.908Z,71.10
2022-12-16T02:40:41.763Z,65.60
2022-12-16T02:43:17.053Z,72.77
2022-12-16T02:45:46.670Z,65.30
2022-12-16T02:48:16.439Z,66.70
2022-12-16T02:50:48.506Z,70.57
2022-12-16T02:53:17.234Z,67.37
2022-12-16T02:55:54.190Z,69.63
2022-12-16T02:58:29.775Z,62.97
2022-12-16T03:01:08.082Z,67.83
2022-12-16T03:03:45.762Z,67.60
2022-12-16T03:06:17.235Z,68.27
2022-12-16T03:08:50.601Z,67.70
2022-12-16T03:11:19.228Z,67.67
2022-12-16T03:13:52.113Z,66.10
2022-12-16T03:16:23.559Z,61.77
2022-12-16T03:18:58.277Z,60.80
2022-12-16T03:21:32.409Z,67.00
2022-12-16T03:24:03.293Z,60.17
2022-12-16T03:26:35.977Z,65.97
2022-12-16T03:29:09.542Z,56.83
2022-12-16T03:31:42.935Z,65.30
2022-12-16T03:34:18.882Z,59.53
2022-12-16T03:36:52.480Z,64.87
2022-12-16T03:39:23.380Z,65.40
2022-12-16T03:41:54.787Z,64.20
2022-12-16T03:44:25.446Z,65.53
2022-12-16T03:46:54.320Z,58.07
2022-12-16T03:49:24.865Z,52.17
2022-12-16T03:51:54.098Z,60.20
2022-12-16T03:54:23.456Z,61.07
2022-12-16T03:56:51.847Z,61.90
2022-12-16T03:59:20.380Z,62.40
2022-12-16T04:01:48.904Z,58.07
2022-12-16T04:04:18.117Z,64.13
2022-12-16T04:07:08.195Z,57.23
2022-12-16T04:09:36.587Z,60.50
2022-12-16T04:12:22.698Z,56.33
2022-12-16T04:15:08.374Z,55.53
2022-12-16T04:17:53.975Z,54.97
2022-12-16T04:20:42.825Z,58.83
2022-12-16T04:23:30.526Z,59.07
2022-12-16T04:25:59.311Z,56.67
2022-12-16T04:28:27.911Z,56.60
2022-12-16T04:30:56.479Z,55.47
2022-12-16T04:33:42.957Z,61.57
2022-12-16T04:36:28.985Z,56.27
2022-12-16T04:39:15.912Z,56.93
2022-12-16T04:42:01.706Z,54.50
2022-12-16T04:44:47.876Z,52.37
2022-12-16T04:47:33.650Z,51.50
2022-12-16T04:50:19.541Z,60.70
2022-12-16T04:53:05.388Z,53.40
2022-12-16T04:55:52.304Z,54.77
2022-12-16T04:58:37.923Z,56.97
2022-12-16T05:01:23.600Z,56.93
2022-12-16T05:04:09.654Z,46.93
2022-12-16T05:06:55.395Z,46.97
2022-12-16T05:09:41.188Z,52.87
2022-12-16T05:12:28.041Z,54.83
2022-12-16T05:15:13.820Z,48.77
2022-12-16T05:17:59.641Z,54.37
2022-12-16T05:20:46.038Z,47.17
2022-12-16T05:23:32.863Z,48.30
2022-12-16T05:26:19.326Z,45.80
2022-12-16T05:29:06.696Z,43.73
2022-12-16T05:31:52.553Z,50.00
2022-12-16T05:34:38.440Z,42.50
2022-12-16T05:37:24.235Z,45.20
2022-12-16T05:40:09.865Z,46.13
2022-12-16T05:42:56.005Z,48.97
2022-12-16T05:45:43.369Z,46.07
2022-12-16T05:48:29.037Z,46.23
2022-12-16T05:51:14.855Z,41.13
2022-12-16T05:54:00.717Z,42.30
2022-12-16T05:56:46.550Z,41.70
2022-12-16T05:59:32.585Z,37.70
2022-12-16T06:02:19.549Z,43.50
2022-12-16T06:05:05.384Z,41.50
2022-12-16T06:07:51.281Z,41.90
2022-12-16T06:10:37.064Z,43.40
2022-12-16T06:13:22.943Z,42.10
2022-12-16T06:16:09.346Z,41.70
2022-12-16T06:18:56.379Z,43.63
2022-12-16T06:21:42.525Z,41.10
2022-12-16T06:24:28.452Z,41.90
2022-12-16T06:27:14.272Z,38.30
2022-12-16T06:30:00.167Z,44.60
2022-12-16T06:32:45.996Z,46.10
2022-12-16T06:35:33.876Z,42.23
2022-12-16T06:38:19.836Z,46.30
2022-12-16T06:41:05.691Z,53.40
2022-12-16T06:43:51.521Z,60.03
2022-12-16T06:46:37.107Z,76.30
2022-12-16T06:49:22.687Z,64.77
2022-12-16T06:52:09.904Z,198.73
2022-12-16T06:54:55.512Z,127.63
2022-12-16T06:57:41.269Z,109.33
2022-12-16T07:00:28.775Z,114.23
2022-12-16T07:03:14.677Z,83.93
2022-12-16T07:06:00.340Z,80.37
2022-12-16T07:08:47.387Z,83.33
2022-12-16T07:11:32.846Z,63.20
2022-12-16T07:14:18.875Z,57.00
2022-12-16T07:17:04.751Z,61.40
2022-12-16T07:19:50.426Z,54.90
2022-12-16T07:22:38.686Z,53.17
2022-12-16T07:25:26.984Z,45.40
2022-12-16T07:28:15.717Z,53.77
2022-12-16T07:31:01.917Z,59.17
2022-12-16T07:33:56.806Z,78.63
2022-12-16T07:36:42.377Z,73.00
2022-12-16T07:39:27.982Z,70.10
2022-12-16T07:42:15.133Z,56.40
2022-12-16T07:45:01.168Z,66.03
2022-12-16T07:47:46.631Z,72.13
2022-12-16T07:50:32.546Z,83.33
2022-12-16T07:53:19.469Z,96.50
2022-12-16T07:56:05.207Z,62.00
2022-12-16T07:58:52.476Z,76.00
2022-12-16T08:01:41.412Z,67.63
2022-12-16T08:04:27.347Z,61.13
2022-12-16T08:07:13.020Z,52.03
2022-12-16T08:10:10.319Z,60.13
2022-12-16T08:12:56.001Z,61.47
2022-12-16T08:15:43.421Z,54.00
2022-12-16T08:18:29.047Z,71.87
2022-12-16T08:21:14.506Z,70.43
2022-12-16T08:24:00.110Z,70.90
2022-12-16T08:26:46.044Z,70.80
2022-12-16T08:29:47.142Z,75.57
2022-12-16T08:32:35.297Z,62.10
2022-12-16T08:35:21.903Z,68.27
2022-12-16T08:38:13.664Z,62.43
2022-12-16T08:41:00.136Z,70.00
2022-12-16T08:43:45.942Z,64.70
2022-12-16T08:46:31.495Z,63.20
2022-12-16T08:49:24.001Z,71.03
2022-12-16T08:52:09.887Z,69.07
2022-12-16T08:54:55.442Z,68.03
2022-12-16T08:57:42.479Z,72.50
2022-12-16T09:00:29.175Z,68.80
2022-12-16T09:03:15.632Z,71.83
2022-12-16T09:06:03.647Z,65.43
2022-12-16T09:08:49.892Z,67.27
2022-12-16T09:11:35.488Z,61.40
2022-12-16T09:14:21.809Z,66.63
2022-12-16T09:17:07.816Z,66.73
2022-12-16T09:19:55.220Z,70.87
2022-12-16T09:22:42.747Z,72.73
2022-12-16T09:25:28.594Z,67.47
2022-12-16T09:28:14.297Z,70.30
2022-12-16T09:31:01.552Z,73.37
2022-12-16T09:33:47.817Z,72.67
2022-12-16T09:36:33.505Z,71.03
2022-12-16T09:39:20.513Z,69.77
2022-12-16T09:42:18.909Z,66.37
2022-12-16T09:45:15.292Z,73.00
2022-12-16T09:48:20.822Z,72.37
2022-12-16T09:51:21.766Z,82.30
2022-12-16T09:54:11.013Z,79.23
2022-12-16T09:56:58.440Z,80.67
2022-12-16T09:59:47.191Z,71.13
2022-12-16T10:02:36.257Z,67.80
2022-12-16T10:05:39.444Z,77.63
2022-12-16T10:08:36.636Z,75.20
2022-12-16T10:11:27.653Z,75.13
2022-12-16T10:14:33.137Z,77.83
2022-12-16T10:17:30.753Z,77.20
2022-12-16T10:20:22.394Z,77.47
2022-12-16T10:23:15.437Z,75.83
2022-12-16T10:26:05.174Z,78.97
2022-12-16T10:29:04.067Z,68.33
2022-12-16T10:31:52.252Z,70.40
2022-12-16T10:34:40.965Z,74.87
2022-12-16T10:37:33.314Z,94.17
2022-12-16T10:40:20.706Z,95.93
2022-12-16T10:43:26.310Z,80.37
2022-12-16T10:46:15.607Z,80.50
2022-12-16T10:49:02.968Z,78.03
2022-12-16T10:51:49.019Z,76.70
2022-12-16T10:54:47.450Z,79.80
2022-12-16T10:57:45.932Z,73.17
2022-12-16T11:00:34.980Z,93.73
2022-12-16T11:03:37.677Z,96.53
2022-12-16T11:06:26.475Z,92.67
2022-12-16T11:09:13.051Z,75.97
2022-12-16T11:11:59.057Z,78.70
2022-12-16T11:15:05.383Z,96.07
2022-12-16T11:17:52.909Z,102.03
2022-12-16T11:20:41.488Z,94.30
2022-12-16T11:23:36.899Z,85.10
2022-12-16T11:26:35.851Z,77.50
2022-12-16T11:29:30.162Z,78.10
2022-12-16T11:32:20.599Z,75.67
2022-12-16T11:35:12.535Z,70.47
2022-12-16T11:38:00.301Z,70.83
2022-12-16T11:41:04.103Z,68.73
2022-12-16T11:43:52.038Z,78.67
2022-12-16T11:46:47.966Z,77.93
2022-12-16T11:49:38.191Z,71.53
2022-12-16T11:52:36.710Z,77.00
2022-12-16T11:58:52.940Z,87.80
2022-12-16T12:01:46.605Z,68.10
2022-12-16T12:04:32.771Z,73.80
2022-12-16T12:07:41.100Z,79.50
2022-12-16T12:10:47.068Z,93.00
2022-12-16T12:13:49.466Z,85.00
2022-12-16T12:16:45.054Z,83.90
2022-12-16T12:19:42.191Z,84.67
2022-12-16T12:22:38.840Z,77.03
2022-12-16T12:25:29.435Z,87.63
2022-12-16T12:28:26.700Z,86.83
2022-12-16T12:31:20.403Z,84.17
2022-12-16T12:34:17.147Z,82.83
2022-12-16T12:37:10.299Z,89.23
2022-12-16T12:40:04.510Z,93.17
2022-12-16T12:42:56.781Z,85.57
2022-12-16T12:46:08.101Z,93.57
2022-12-16T12:49:04.125Z,92.83
2022-12-16T12:51:59.915Z,81.97
2022-12-16T12:54:53.842Z,79.67
2022-12-16T12:57:44.261Z,75.23
2022-12-16T13:00:36.262Z,82.77
2022-12-16T13:03:28.980Z,79.57
2022-12-16T13:06:16.312Z,72.67
2022-12-16T13:09:13.349Z,74.37
2022-12-16T13:12:27.031Z,75.10
2022-12-16T13:15:15.416Z,78.93
2022-12-16T13:18:32.049Z,81.07
2022-12-16T13:21:18.185Z,77.40
2022-12-16T13:24:05.646Z,82.13
2022-12-16T13:26:53.530Z,85.90
2022-12-16T13:29:41.878Z,81.80
2022-12-16T13:32:37.171Z,82.03
2022-12-16T13:35:33.599Z,77.33
2022-12-16T13:38:21.913Z,82.20
2022-12-16T13:41:13.445Z,79.50
2022-12-16T13:44:06.848Z,75.20
2022-12-16T13:47:01.911Z,82.10
2022-12-16T13:50:03.773Z,77.33
2022-12-16T13:53:00.347Z,80.53
2022-12-16T13:55:49.429Z,87.63
2022-12-16T13:58:48.802Z,89.90
2022-12-16T14:01:41.392Z,97.37
2022-12-16T14:04:29.583Z,87.63
2022-12-16T14:07:24.494Z,83.10
2022-12-16T14:10:10.567Z,87.43
2022-12-16T14:13:07.807Z,91.50
2022-12-16T14:16:08.170Z,89.77
2022-12-16T14:19:06.235Z,85.90
2022-12-16T14:22:01.864Z,99.33
2022-12-16T14:24:49.738Z,97.07
2022-12-16T14:27:40.311Z,96.77
2022-12-16T14:30:36.735Z,85.70
2022-12-16T14:33:42.289Z,96.37
2022-12-16T14:36:39.370Z,97.93
2022-12-16T14:39:29.701Z,91.90
2022-12-16T14:42:15.497Z,96.20
2022-12-16T14:45:05.557Z,88.90
2022-12-16T14:47:58.847Z,93.00
2022-12-16T14:50:48.084Z,86.03
2022-12-16T14:53:37.872Z,99.87
2022-12-16T14:56:51.061Z,101.60
2022-12-16T14:59:38.997Z,90.60
2022-12-16T15:02:43.237Z,99.90
2022-12-16T15:05:29.856Z,95.50
2022-12-16T15:08:18.801Z,100.50
2022-12-16T15:11:06.106Z,100.00
2022-12-16T15:17:01.774Z,90.07
2022-12-16T15:19:15.676Z,93.53
2022-12-16T15:20:01.566Z,100.13
2022-12-16T15:22:49.090Z,94.13
2022-12-16T15:25:41.760Z,88.50
2022-12-16T15:28:43.171Z,114.30
2022-12-16T15:31:33.081Z,120.53
2022-12-16T15:34:42.340Z,122.27
2022-12-16T15:37:43.596Z,139.47
2022-12-16T15:40:44.057Z,205.07
2022-12-16T15:43:47.770Z,147.40
2022-12-16T15:46:39.197Z,142.33
2022-12-16T15:49:34.766Z,154.70
2022-12-16T15:52:32.159Z,168.10
2022-12-16T15:55:29.921Z,145.60
2022-12-16T15:58:18.370Z,139.63
2022-12-16T16:01:16.488Z,119.57
2022-12-16T16:04:08.295Z,113.17
2022-12-16T16:06:54.396Z,110.90
2022-12-16T16:09:42.820Z,90.37
2022-12-16T16:12:29.145Z,108.37
2022-12-16T16:15:16.418Z,114.63
2022-12-16T16:18:03.284Z,110.03
2022-12-16T16:20:49.135Z,115.93
2022-12-16T16:23:35.413Z,112.13
2022-12-16T16:26:21.948Z,147.20
2022-12-16T16:29:07.602Z,140.67
2022-12-16T16:31:57.179Z,132.20
2022-12-16T16:34:46.832Z,108.67
2022-12-16T16:37:40.601Z,113.93
2022-12-16T16:40:37.216Z,114.00
2022-12-16T16:43:22.980Z,114.00
2022-12-16T16:46:12.961Z,104.33
2022-12-16T16:49:00.218Z,121.57
2022-12-16T16:51:46.568Z,156.60
2022-12-16T16:54:32.461Z,153.37
2022-12-16T16:57:20.131Z,128.97
2022-12-16T17:00:05.890Z,109.70
2022-12-16T17:02:51.597Z,101.67
2022-12-16T17:05:38.896Z,115.53
2022-12-16T17:08:24.488Z,142.47
2022-12-16T17:11:10.209Z,142.77
2022-12-16T17:13:56.148Z,138.23
2022-12-16T17:16:53.210Z,95.93
2022-12-16T17:19:38.637Z,104.70
2022-12-16T17:22:25.568Z,113.53
2022-12-16T17:25:11.315Z,112.57
2022-12-16T17:27:56.971Z,114.87
2022-12-16T17:30:47.476Z,114.40
2022-12-16T17:33:34.248Z,115.93
2022-12-16T17:36:20.074Z,96.83
2022-12-16T17:39:07.871Z,101.93
2022-12-16T17:42:05.006Z,95.43
2022-12-16T17:44:50.477Z,87.33
2022-12-16T17:47:36.782Z,93.83
2022-12-16T17:50:23.641Z,105.07
2022-12-16T17:53:13.108Z,102.03
2022-12-16T17:56:00.356Z,103.30
2022-12-16T17:58:50.304Z,101.03
2022-12-16T18:01:36.132Z,104.67
2022-12-16T18:04:22.088Z,104.20
2022-12-16T18:07:07.907Z,105.83
2022-12-16T18:09:53.813Z,106.47
2022-12-16T18:12:41.813Z,107.70
2022-12-16T18:15:28.410Z,114.87
2022-12-16T18:18:14.185Z,96.97
2022-12-16T18:21:00.096Z,103.50
2022-12-16T18:23:48.020Z,96.07
2022-12-16T18:26:34.155Z,94.97
2022-12-16T18:29:20.961Z,93.50
2022-12-16T18:32:07.398Z,97.77
2022-12-16T18:34:53.141Z,93.97
2022-12-16T18:37:38.853Z,107.40
2022-12-16T18:40:26.383Z,106.40
2022-12-16T18:43:12.065Z,110.93
2022-12-16T18:45:59.280Z,109.07
2022-12-16T18:48:45.199Z,103.53
2022-12-16T18:51:31.176Z,97.27
2022-12-16T18:54:16.828Z,109.97
2022-12-16T18:57:02.386Z,102.53
2022-12-16T18:59:47.866Z,104.80
2022-12-16T19:02:34.930Z,109.80
2022-12-16T19:05:20.775Z,111.27
2022-12-16T19:08:09.999Z,115.77
2022-12-16T19:10:59.603Z,123.60
2022-12-16T19:13:45.501Z,127.40
2022-12-16T19:16:31.612Z,135.60
2022-12-16T19:19:20.436Z,152.70
2022-12-16T19:22:06.905Z,132.60
2022-12-16T19:24:55.020Z,128.63
2022-12-16T19:27:41.970Z,129.53
2022-12-16T19:30:29.068Z,125.77
2022-12-16T19:33:14.834Z,114.13
2022-12-16T19:36:01.846Z,104.80
2022-12-16T19:38:47.607Z,108.73
2022-12-16T19:41:34.389Z,113.17
2022-12-16T19:44:20.132Z,99.30
2022-12-16T19:47:06.072Z,112.03
2022-12-16T19:49:51.820Z,113.27
2022-12-16T19:52:38.706Z,111.63
2022-12-16T19:55:25.398Z,120.00
2022-12-16T19:58:10.838Z,115.63
2022-12-16T20:00:57.159Z,118.43
2022-12-16T20:03:43.149Z,134.70
2022-12-16T20:06:29.288Z,138.17
2022-12-16T20:09:16.248Z,123.50
2022-12-16T20:12:02.004Z,124.83
2022-12-16T20:14:50.141Z,126.37
2022-12-16T20:17:37.955Z,147.40
2022-12-16T20:20:24.675Z,126.43
2022-12-16T20:23:10.391Z,128.93
2022-12-16T20:25:57.771Z,129.83
2022-12-16T20:28:43.558Z,134.73
2022-12-16T20:31:29.515Z,135.27
2022-12-16T20:34:16.341Z,141.47
2022-12-16T20:37:02.412Z,130.13
2022-12-16T20:42:56.330Z,143.10
2022-12-16T20:45:56.655Z,143.57
2022-12-16T20:48:42.413Z,141.87
2022-12-16T20:51:28.363Z,140.13
2022-12-16T20:54:14.342Z,141.47
2022-12-16T20:57:00.580Z,121.87
2022-12-16T20:59:48.189Z,119.50
2022-12-16T21:02:37.567Z,128.13
2022-12-16T21:05:23.797Z,121.40
2022-12-16T21:08:09.566Z,120.27
2022-12-16T21:14:01.313Z,117.73
2022-12-16T21:16:48.854Z,123.47
2022-12-16T21:19:37.374Z,124.77
2022-12-16T21:22:23.309Z,117.07
2022-12-16T21:25:08.854Z,112.13
2022-12-16T21:28:00.074Z,127.57
2022-12-16T21:30:46.067Z,121.83
2022-12-16T21:33:38.588Z,110.40
2022-12-16T21:36:26.332Z,111.67
2022-12-16T21:39:12.231Z,111.63
2022-12-16T21:41:58.227Z,122.73
2022-12-16T21:44:44.084Z,117.63
2022-12-16T21:47:30.008Z,113.67
2022-12-16T21:50:17.116Z,115.97
2022-12-16T21:53:05.907Z,117.40
2022-12-16T21:55:51.133Z,117.00
2022-12-16T21:58:37.790Z,103.17
2022-12-16T22:01:23.380Z,112.03
2022-12-16T22:04:09.907Z,115.07
2022-12-16T22:06:56.877Z,119.37
2022-12-16T22:09:42.541Z,122.00
2022-12-16T22:12:28.379Z,120.93
2022-12-16T22:15:14.208Z,120.60
2022-12-16T22:17:59.973Z,114.80
2022-12-16T22:20:45.559Z,110.43
2022-12-16T22:23:32.875Z,119.73
2022-12-16T22:26:19.557Z,116.00
2022-12-16T22:29:05.655Z,115.43
2022-12-16T22:31:51.345Z,123.57
2022-12-16T22:34:37.778Z,118.03
2022-12-16T22:37:23.417Z,116.17
2022-12-16T22:40:10.610Z,112.43
2022-12-16T22:42:56.510Z,124.73
2022-12-16T22:45:42.536Z,132.97
2022-12-16T22:48:30.815Z,137.90
2022-12-16T22:51:16.684Z,136.30
2022-12-16T22:54:02.489Z,127.67
2022-12-16T22:56:49.589Z,116.37
2022-12-16T22:59:35.684Z,118.67
2022-12-16T23:02:21.421Z,118.40
2022-12-16T23:05:06.910Z,125.17
2022-12-16T23:07:52.740Z,115.17
2022-12-16T23:10:38.959Z,113.97
2022-12-16T23:13:27.461Z,116.23
2022-12-16T23:16:13.143Z,124.30
2022-12-16T23:18:58.702Z,130.43
2022-12-16T23:21:44.504Z,119.37
2022-12-16T23:24:30.226Z,119.00
2022-12-16T23:27:16.486Z,131.43
2022-12-16T23:30:03.522Z,120.27
2022-12-16T23:32:49.154Z,114.50
2022-12-16T23:35:35.007Z,117.17
2022-12-16T23:38:23.903Z,111.30
2022-12-16T23:41:14.366Z,108.97
2022-12-16T23:44:00.159Z,110.20
2022-12-16T23:46:47.784Z,112.73
2022-12-16T23:49:35.923Z,118.07
2022-12-16T23:52:21.919Z,109.57
2022-12-16T23:55:07.692Z,106.37
2022-12-16T23:57:53.821Z,113.73
